MSR14 ZSPD-HECA
Flight info
| Callsign | MSR14 |
|---|---|
| Flight time | N/A |
| Altitude | 34100 |
| Route | PIK83D PIKAS G330 PIMOL A593 OMUDI/K0915S1100 A593 DALIM W157 BEKDO/K0902S1070 W157 VYK G212 SOTMU/K0898S1100 B339 ASILA A575 UPREK DCT NUKTI/K0896S1160 B215 FKG A368 SARIN/K0896F380 N161 ARKAM/K0895F400 N161 GASBI/N0492F400 N161 LEYLA T916 MATAL DCT INDUR UN161 ERZ UW701 GAZ UT470 ADKAR DCT VESAR DCT ODELO DCT STEPA/N0491F410 N71 LAKTO N307 MELDO A16 CVO |
| Aircraft | A359/H-SDE2E3GHIJ3J4J5LM1ORWXY/LB1D1 |
Departure
| Time | N/A |
|---|---|
| Airport | Shanghai Pudong International Airport (ZSPD) |
Arrival
| Time | 2026-05-05 10:45 |
|---|---|
| Airport | Cairo International Airport (HECA) |
| Time | Latitude | Longitude | Altitude | Speed | Heading |
|---|---|---|---|---|---|
| 2026-05-05 07:04 | 44.35750 | 54.02800 | 39845 ft | 446 kts | 234° |
| 2026-05-05 07:05 | 44.32165 | 53.95728 | 39844 ft | 446 kts | 234° |
| 2026-05-05 07:05 | 44.28576 | 53.88666 | 39849 ft | 446 kts | 234° |
| 2026-05-05 07:06 | 44.25002 | 53.81650 | 39849 ft | 446 kts | 234° |
| 2026-05-05 07:06 | 44.21391 | 53.74578 | 39849 ft | 447 kts | 234° |
| 2026-05-05 07:07 | 44.17771 | 53.67507 | 39848 ft | 447 kts | 234° |
| 2026-05-05 07:07 | 44.14171 | 53.60492 | 39853 ft | 447 kts | 234° |
| 2026-05-05 07:08 | 44.10544 | 53.53440 | 39854 ft | 447 kts | 234° |
| 2026-05-05 07:08 | 44.06914 | 53.46400 | 39851 ft | 448 kts | 234° |
| 2026-05-05 07:09 | 44.03277 | 53.39363 | 39853 ft | 448 kts | 234° |
| 2026-05-05 07:09 | 43.99653 | 53.32369 | 39857 ft | 448 kts | 234° |
| 2026-05-05 07:10 | 43.96004 | 53.25344 | 39854 ft | 448 kts | 234° |
| 2026-05-05 07:10 | 43.92353 | 53.18330 | 39854 ft | 448 kts | 234° |
| 2026-05-05 07:11 | 43.88701 | 53.11332 | 39854 ft | 448 kts | 234° |
| 2026-05-05 07:11 | 43.85048 | 53.04340 | 39856 ft | 447 kts | 233° |
| 2026-05-05 07:12 | 43.81410 | 52.97411 | 39860 ft | 447 kts | 233° |
| 2026-05-05 07:12 | 43.77744 | 52.90446 | 39861 ft | 447 kts | 233° |
| 2026-05-05 07:13 | 43.74086 | 52.83509 | 39862 ft | 447 kts | 233° |
| 2026-05-05 07:13 | 43.70553 | 52.76823 | 39863 ft | 446 kts | 233° |
| 2026-05-05 07:14 | 43.66881 | 52.69890 | 39863 ft | 446 kts | 233° |
| 2026-05-05 07:14 | 43.63210 | 52.62973 | 39863 ft | 446 kts | 233° |
| 2026-05-05 07:15 | 43.59528 | 52.56085 | 39862 ft | 446 kts | 233° |
| 2026-05-05 07:15 | 43.55840 | 52.49208 | 39866 ft | 445 kts | 233° |
| 2026-05-05 07:16 | 43.52178 | 52.42388 | 39871 ft | 445 kts | 233° |
| 2026-05-05 07:16 | 43.48480 | 52.35515 | 39871 ft | 445 kts | 233° |
| 2026-05-05 07:17 | 43.44807 | 52.28700 | 39875 ft | 444 kts | 232° |
| 2026-05-05 07:17 | 43.41109 | 52.21858 | 39869 ft | 444 kts | 232° |
| 2026-05-05 07:18 | 43.37420 | 52.15048 | 39880 ft | 444 kts | 232° |
| 2026-05-05 07:18 | 43.33744 | 52.08276 | 39880 ft | 444 kts | 232° |
| 2026-05-05 07:19 | 43.30056 | 52.01498 | 39877 ft | 444 kts | 232° |
| 2026-05-05 07:19 | 43.26353 | 51.94710 | 39881 ft | 444 kts | 232° |
| 2026-05-05 07:20 | 43.22651 | 51.87938 | 39886 ft | 444 kts | 232° |
| 2026-05-05 07:20 | 43.18938 | 51.81162 | 39891 ft | 443 kts | 232° |
| 2026-05-05 07:21 | 43.15224 | 51.74399 | 39887 ft | 443 kts | 232° |
| 2026-05-05 07:21 | 43.11534 | 51.67695 | 39887 ft | 443 kts | 232° |
| 2026-05-05 07:22 | 43.07810 | 51.60945 | 39892 ft | 443 kts | 232° |
| 2026-05-05 07:22 | 43.04086 | 51.54211 | 39893 ft | 444 kts | 232° |
| 2026-05-05 07:23 | 43.00375 | 51.47515 | 39891 ft | 444 kts | 232° |
| 2026-05-05 07:23 | 42.96640 | 51.40792 | 39899 ft | 444 kts | 232° |
| 2026-05-05 07:24 | 42.92920 | 51.34109 | 39899 ft | 444 kts | 232° |
| 2026-05-05 07:24 | 42.89179 | 51.27405 | 39900 ft | 444 kts | 232° |
| 2026-05-05 07:25 | 42.85434 | 51.20708 | 39909 ft | 444 kts | 232° |
| 2026-05-05 07:25 | 42.81685 | 51.14020 | 39908 ft | 444 kts | 232° |
| 2026-05-05 07:26 | 42.77953 | 51.07375 | 39915 ft | 444 kts | 232° |
| 2026-05-05 07:26 | 42.74195 | 51.00701 | 39915 ft | 444 kts | 232° |
| 2026-05-05 07:27 | 42.70435 | 50.94037 | 39909 ft | 444 kts | 232° |
| 2026-05-05 07:27 | 42.66685 | 50.87408 | 39902 ft | 443 kts | 232° |
| 2026-05-05 07:28 | 42.62921 | 50.80767 | 39912 ft | 443 kts | 231° |
| 2026-05-05 07:28 | 42.59156 | 50.74139 | 39903 ft | 443 kts | 231° |
| 2026-05-05 07:29 | 42.55404 | 50.67550 | 39920 ft | 443 kts | 231° |
| 2026-05-05 07:29 | 42.51630 | 50.60935 | 39909 ft | 443 kts | 231° |
| 2026-05-05 07:30 | 42.47848 | 50.54321 | 39911 ft | 443 kts | 231° |
| 2026-05-05 07:30 | 42.42218 | 50.44462 | 39919 ft | 443 kts | 232° |
| 2026-05-05 07:31 | 42.38628 | 50.37686 | 39918 ft | 443 kts | 234° |
| 2026-05-05 07:31 | 42.35088 | 50.30864 | 39922 ft | 443 kts | 233° |
| 2026-05-05 07:32 | 42.31517 | 50.24066 | 39924 ft | 443 kts | 233° |
| 2026-05-05 07:32 | 42.27949 | 50.17345 | 39923 ft | 443 kts | 233° |
| 2026-05-05 07:33 | 42.24342 | 50.10579 | 39922 ft | 443 kts | 233° |
| 2026-05-05 07:33 | 42.20751 | 50.03860 | 39926 ft | 443 kts | 233° |
| 2026-05-05 07:34 | 42.17146 | 49.97125 | 39926 ft | 442 kts | 233° |
| 2026-05-05 07:34 | 42.13536 | 49.90395 | 39930 ft | 442 kts | 233° |
| 2026-05-05 07:35 | 42.09934 | 49.83695 | 39928 ft | 441 kts | 233° |
| 2026-05-05 07:35 | 42.06348 | 49.77040 | 39925 ft | 441 kts | 233° |
| 2026-05-05 07:36 | 42.02737 | 49.70353 | 39927 ft | 441 kts | 233° |
| 2026-05-05 07:36 | 41.99132 | 49.63692 | 39927 ft | 440 kts | 233° |
| 2026-05-05 07:37 | 41.95521 | 49.57034 | 39930 ft | 440 kts | 233° |
| 2026-05-05 07:37 | 41.91936 | 49.50439 | 39931 ft | 439 kts | 232° |
| 2026-05-05 07:38 | 41.88327 | 49.43814 | 39933 ft | 438 kts | 232° |
| 2026-05-05 07:38 | 41.84727 | 49.37220 | 39934 ft | 438 kts | 232° |
| 2026-05-05 07:39 | 41.81118 | 49.30623 | 39940 ft | 437 kts | 232° |
| 2026-05-05 07:39 | 41.77668 | 49.23975 | 39937 ft | 438 kts | 235° |
| 2026-05-05 07:40 | 41.74335 | 49.17134 | 39938 ft | 437 kts | 235° |
| 2026-05-05 07:40 | 41.71562 | 49.11471 | 39935 ft | 437 kts | 235° |
| 2026-05-05 07:41 | 41.67635 | 49.03574 | 39939 ft | 437 kts | 234° |
| 2026-05-05 07:41 | 41.64798 | 48.97913 | 39938 ft | 437 kts | 234° |
| 2026-05-05 07:42 | 41.61409 | 48.91174 | 39938 ft | 437 kts | 234° |
| 2026-05-05 07:42 | 41.58036 | 48.84476 | 39942 ft | 437 kts | 234° |
| 2026-05-05 07:43 | 41.54633 | 48.77731 | 39943 ft | 437 kts | 234° |
| 2026-05-05 07:43 | 41.51222 | 48.71043 | 39943 ft | 437 kts | 233° |
| 2026-05-05 07:44 | 41.47596 | 48.64536 | 39941 ft | 437 kts | 231° |
| 2026-05-05 07:44 | 41.43905 | 48.58078 | 39939 ft | 437 kts | 231° |
| 2026-05-05 07:45 | 41.40275 | 48.51625 | 39932 ft | 438 kts | 232° |
| 2026-05-05 07:45 | 41.36698 | 48.45050 | 39929 ft | 438 kts | 233° |
| 2026-05-05 07:46 | 41.33126 | 48.38454 | 39923 ft | 438 kts | 233° |
| 2026-05-05 07:46 | 41.29539 | 48.31872 | 39919 ft | 439 kts | 233° |
| 2026-05-05 07:47 | 41.25963 | 48.25342 | 39908 ft | 440 kts | 232° |
| 2026-05-05 07:47 | 41.22339 | 48.18748 | 39919 ft | 441 kts | 232° |
| 2026-05-05 07:48 | 41.18736 | 48.12200 | 39915 ft | 442 kts | 232° |
| 2026-05-05 07:48 | 41.15098 | 48.05599 | 39923 ft | 442 kts | 232° |
| 2026-05-05 07:49 | 41.11726 | 47.98779 | 39925 ft | 443 kts | 241° |
| 2026-05-05 07:49 | 41.09656 | 47.91067 | 39919 ft | 445 kts | 252° |
| 2026-05-05 07:50 | 41.08195 | 47.83051 | 39933 ft | 447 kts | 253° |
| 2026-05-05 07:50 | 41.06813 | 47.74996 | 39940 ft | 448 kts | 253° |
| 2026-05-05 07:51 | 41.05419 | 47.67011 | 39941 ft | 447 kts | 253° |
| 2026-05-05 07:51 | 41.03990 | 47.58995 | 39950 ft | 446 kts | 253° |
| 2026-05-05 07:52 | 41.02559 | 47.51044 | 39956 ft | 445 kts | 253° |
| 2026-05-05 07:52 | 41.01117 | 47.43071 | 39961 ft | 445 kts | 253° |
| 2026-05-05 07:53 | 40.99671 | 47.35100 | 39968 ft | 444 kts | 252° |
| 2026-05-05 07:53 | 40.98220 | 47.27137 | 39964 ft | 444 kts | 252° |
| 2026-05-05 07:54 | 40.96762 | 47.19171 | 39967 ft | 444 kts | 252° |
| 2026-05-05 07:54 | 40.95308 | 47.11255 | 39962 ft | 444 kts | 252° |
| 2026-05-05 07:55 | 40.93843 | 47.03311 | 39961 ft | 444 kts | 252° |
| 2026-05-05 07:55 | 40.92381 | 46.95417 | 39958 ft | 445 kts | 252° |
| 2026-05-05 07:56 | 40.90900 | 46.87455 | 39958 ft | 445 kts | 252° |
| 2026-05-05 07:56 | 40.89684 | 46.79422 | 39951 ft | 448 kts | 257° |
| 2026-05-05 07:57 | 40.88870 | 46.71281 | 39950 ft | 449 kts | 258° |
| 2026-05-05 07:57 | 40.88107 | 46.63072 | 39947 ft | 449 kts | 258° |
| 2026-05-05 07:58 | 40.87341 | 46.54882 | 39944 ft | 449 kts | 258° |
| 2026-05-05 07:58 | 40.86564 | 46.46728 | 39941 ft | 449 kts | 258° |
| 2026-05-05 07:59 | 40.85773 | 46.38533 | 39941 ft | 450 kts | 258° |
| 2026-05-05 07:59 | 40.84973 | 46.30324 | 39937 ft | 450 kts | 258° |
| 2026-05-05 08:00 | 40.84169 | 46.22122 | 39939 ft | 450 kts | 258° |
| 2026-05-05 08:00 | 40.83363 | 46.13958 | 39937 ft | 451 kts | 258° |
| 2026-05-05 08:01 | 40.82544 | 46.05725 | 39934 ft | 451 kts | 258° |
| 2026-05-05 08:01 | 40.81720 | 45.97500 | 39928 ft | 452 kts | 258° |
| 2026-05-05 08:02 | 40.80894 | 45.89321 | 39924 ft | 452 kts | 258° |
| 2026-05-05 08:02 | 40.80053 | 45.81060 | 39930 ft | 454 kts | 258° |
| 2026-05-05 08:03 | 40.79214 | 45.72859 | 39920 ft | 452 kts | 258° |
| 2026-05-05 08:03 | 40.78366 | 45.64629 | 39917 ft | 453 kts | 258° |
| 2026-05-05 08:04 | 40.77508 | 45.56373 | 39918 ft | 454 kts | 258° |
| 2026-05-05 08:04 | 40.76080 | 45.48314 | 39917 ft | 447 kts | 245° |
| 2026-05-05 08:05 | 40.73673 | 45.40796 | 39926 ft | 445 kts | 243° |
| 2026-05-05 08:05 | 40.71101 | 45.33398 | 39925 ft | 446 kts | 242° |
| 2026-05-05 08:06 | 40.68483 | 45.25945 | 39927 ft | 447 kts | 242° |
| 2026-05-05 08:06 | 40.65880 | 45.18492 | 39930 ft | 448 kts | 243° |
| 2026-05-05 08:07 | 40.63277 | 45.11032 | 39933 ft | 448 kts | 243° |
| 2026-05-05 08:07 | 40.60677 | 45.03583 | 39933 ft | 448 kts | 243° |
| 2026-05-05 08:08 | 40.58078 | 44.96160 | 39935 ft | 448 kts | 242° |
| 2026-05-05 08:08 | 40.55463 | 44.88708 | 39943 ft | 449 kts | 242° |
| 2026-05-05 08:09 | 40.52836 | 44.81246 | 39948 ft | 449 kts | 242° |
| 2026-05-05 08:09 | 40.50220 | 44.73838 | 39944 ft | 449 kts | 242° |
| 2026-05-05 08:10 | 40.47585 | 44.66391 | 39952 ft | 449 kts | 242° |
| 2026-05-05 08:10 | 40.44943 | 44.58945 | 39946 ft | 450 kts | 242° |
| 2026-05-05 08:11 | 40.42307 | 44.51539 | 39945 ft | 450 kts | 242° |
| 2026-05-05 08:11 | 40.39651 | 44.44092 | 39950 ft | 451 kts | 242° |
| 2026-05-05 08:12 | 40.36987 | 44.36642 | 39940 ft | 451 kts | 242° |
| 2026-05-05 08:12 | 40.34314 | 44.29188 | 39943 ft | 451 kts | 242° |
| 2026-05-05 08:13 | 40.31635 | 44.21735 | 39942 ft | 452 kts | 242° |
| 2026-05-05 08:13 | 40.28943 | 44.14265 | 39942 ft | 452 kts | 242° |
| 2026-05-05 08:14 | 40.26265 | 44.06855 | 39934 ft | 453 kts | 242° |
| 2026-05-05 08:14 | 40.23561 | 43.99390 | 39936 ft | 454 kts | 242° |
| 2026-05-05 08:15 | 40.20845 | 43.91911 | 39939 ft | 455 kts | 242° |
| 2026-05-05 08:15 | 40.18117 | 43.84420 | 39940 ft | 455 kts | 242° |
| 2026-05-05 08:16 | 40.15403 | 43.76984 | 39940 ft | 455 kts | 242° |
| 2026-05-05 08:16 | 40.12752 | 43.69461 | 39940 ft | 457 kts | 246° |
| 2026-05-05 08:17 | 40.11300 | 43.61330 | 39948 ft | 464 kts | 260° |
| 2026-05-05 08:17 | 40.10753 | 43.52896 | 39960 ft | 466 kts | 262° |
| 2026-05-05 08:18 | 40.10345 | 43.44489 | 39969 ft | 467 kts | 262° |
| 2026-05-05 08:18 | 40.09919 | 43.36013 | 39970 ft | 467 kts | 262° |
| 2026-05-05 08:19 | 40.09462 | 43.27546 | 39977 ft | 467 kts | 262° |
| 2026-05-05 08:19 | 40.08981 | 43.19083 | 39988 ft | 467 kts | 262° |
| 2026-05-05 08:20 | 40.08501 | 43.10680 | 39991 ft | 467 kts | 262° |
| 2026-05-05 08:20 | 40.08005 | 43.02170 | 39987 ft | 467 kts | 262° |
| 2026-05-05 08:21 | 40.07512 | 42.93771 | 39984 ft | 467 kts | 261° |
| 2026-05-05 08:21 | 40.07004 | 42.85282 | 39981 ft | 468 kts | 262° |
| 2026-05-05 08:22 | 40.06502 | 42.76814 | 39974 ft | 468 kts | 262° |
| 2026-05-05 08:22 | 40.05998 | 42.68400 | 39978 ft | 468 kts | 262° |
| 2026-05-05 08:23 | 40.05481 | 42.59910 | 39975 ft | 468 kts | 262° |
| 2026-05-05 08:23 | 40.04954 | 42.51415 | 39974 ft | 469 kts | 262° |
| 2026-05-05 08:24 | 40.04423 | 42.42931 | 39974 ft | 469 kts | 262° |
| 2026-05-05 08:24 | 40.03866 | 42.34492 | 39960 ft | 469 kts | 261° |
| 2026-05-05 08:25 | 40.03273 | 42.25991 | 39964 ft | 470 kts | 261° |
| 2026-05-05 08:25 | 40.02679 | 42.17500 | 39964 ft | 470 kts | 261° |
| 2026-05-05 08:26 | 40.02081 | 42.09013 | 39963 ft | 470 kts | 261° |
| 2026-05-05 08:26 | 40.01480 | 42.00512 | 39947 ft | 470 kts | 261° |
| 2026-05-05 08:27 | 40.00872 | 41.92010 | 39950 ft | 470 kts | 261° |
| 2026-05-05 08:27 | 40.00260 | 41.83540 | 39950 ft | 470 kts | 261° |
| 2026-05-05 08:28 | 39.99744 | 41.76463 | 39946 ft | 471 kts | 261° |
| 2026-05-05 08:28 | 39.99129 | 41.67953 | 39948 ft | 471 kts | 261° |
| 2026-05-05 08:29 | 39.98521 | 41.59436 | 39945 ft | 471 kts | 261° |
| 2026-05-05 08:30 | 39.97600 | 41.46707 | 39952 ft | 472 kts | 261° |
| 2026-05-05 08:30 | 39.96974 | 41.38188 | 39960 ft | 472 kts | 261° |
| 2026-05-05 08:31 | 39.96337 | 41.29648 | 39965 ft | 472 kts | 261° |
| 2026-05-05 08:31 | 39.94863 | 41.21385 | 39967 ft | 466 kts | 246° |
| 2026-05-05 08:32 | 39.91693 | 41.14148 | 39968 ft | 462 kts | 232° |
| 2026-05-05 08:32 | 39.87725 | 41.07514 | 39965 ft | 463 kts | 230° |
| 2026-05-05 08:33 | 39.83689 | 41.01049 | 39961 ft | 463 kts | 230° |
| 2026-05-05 08:33 | 39.79632 | 40.94521 | 39956 ft | 463 kts | 230° |
| 2026-05-05 08:34 | 39.75622 | 40.88026 | 39952 ft | 463 kts | 230° |
| 2026-05-05 08:34 | 39.71595 | 40.81493 | 39948 ft | 463 kts | 230° |
| 2026-05-05 08:35 | 39.67574 | 40.74950 | 39953 ft | 463 kts | 230° |
| 2026-05-05 08:35 | 39.63591 | 40.68349 | 39956 ft | 463 kts | 231° |
| 2026-05-05 08:36 | 39.59621 | 40.61825 | 39962 ft | 463 kts | 230° |
| 2026-05-05 08:36 | 39.55589 | 40.55286 | 39961 ft | 463 kts | 230° |
| 2026-05-05 08:37 | 39.51521 | 40.48794 | 39964 ft | 463 kts | 229° |
| 2026-05-05 08:37 | 39.47451 | 40.42404 | 39963 ft | 463 kts | 229° |
| 2026-05-05 08:38 | 39.43351 | 40.35964 | 39965 ft | 463 kts | 229° |
| 2026-05-05 08:38 | 39.39242 | 40.29500 | 39973 ft | 464 kts | 229° |
| 2026-05-05 08:39 | 39.35168 | 40.23100 | 39966 ft | 464 kts | 229° |
| 2026-05-05 08:39 | 39.31065 | 40.16656 | 39968 ft | 464 kts | 230° |
| 2026-05-05 08:40 | 39.26999 | 40.10171 | 39971 ft | 465 kts | 230° |
| 2026-05-05 08:40 | 39.22934 | 40.03673 | 39967 ft | 465 kts | 230° |
| 2026-05-05 08:41 | 39.18852 | 39.97172 | 39974 ft | 465 kts | 230° |
| 2026-05-05 08:41 | 39.14775 | 39.90747 | 39969 ft | 466 kts | 230° |
| 2026-05-05 08:42 | 39.10640 | 39.84315 | 39960 ft | 466 kts | 230° |
| 2026-05-05 08:42 | 39.06505 | 39.77889 | 39956 ft | 466 kts | 230° |
| 2026-05-05 08:43 | 39.02370 | 39.71464 | 39953 ft | 466 kts | 230° |
| 2026-05-05 08:43 | 38.98231 | 39.65040 | 39949 ft | 465 kts | 230° |
| 2026-05-05 08:44 | 38.94130 | 39.58667 | 39946 ft | 465 kts | 230° |
| 2026-05-05 08:44 | 38.90006 | 39.52260 | 39940 ft | 465 kts | 230° |
| 2026-05-05 08:45 | 38.85880 | 39.45863 | 39938 ft | 465 kts | 230° |
| 2026-05-05 08:45 | 38.81771 | 39.39467 | 39939 ft | 464 kts | 230° |
| 2026-05-05 08:46 | 38.77690 | 39.33092 | 39937 ft | 464 kts | 230° |
| 2026-05-05 08:46 | 38.73584 | 39.26695 | 39937 ft | 464 kts | 230° |
| 2026-05-05 08:47 | 38.69111 | 39.20739 | 39941 ft | 464 kts | 220° |
| 2026-05-05 08:47 | 38.64122 | 39.15481 | 39936 ft | 464 kts | 219° |
| 2026-05-05 08:48 | 38.59090 | 39.10390 | 39938 ft | 464 kts | 218° |
| 2026-05-05 08:48 | 38.54026 | 39.05282 | 39933 ft | 463 kts | 219° |
| 2026-05-05 08:49 | 38.48954 | 39.00163 | 39930 ft | 463 kts | 218° |
| 2026-05-05 08:49 | 38.43946 | 38.95077 | 39929 ft | 463 kts | 219° |
| 2026-05-05 08:50 | 38.38910 | 38.89919 | 39922 ft | 463 kts | 219° |
| 2026-05-05 08:50 | 38.33880 | 38.84777 | 39923 ft | 463 kts | 219° |
| 2026-05-05 08:51 | 38.28865 | 38.79667 | 39928 ft | 464 kts | 219° |
| 2026-05-05 08:51 | 38.23806 | 38.74536 | 39931 ft | 464 kts | 218° |
| 2026-05-05 08:52 | 38.18742 | 38.69432 | 39933 ft | 464 kts | 218° |
| 2026-05-05 08:52 | 38.13675 | 38.64333 | 39938 ft | 464 kts | 218° |
| 2026-05-05 08:53 | 38.08601 | 38.59233 | 39943 ft | 465 kts | 218° |
| 2026-05-05 08:53 | 38.03545 | 38.54159 | 39948 ft | 464 kts | 218° |
| 2026-05-05 08:54 | 37.98472 | 38.49076 | 39958 ft | 464 kts | 218° |
| 2026-05-05 08:54 | 37.93388 | 38.43991 | 39959 ft | 465 kts | 218° |
| 2026-05-05 08:55 | 37.88335 | 38.38947 | 39961 ft | 465 kts | 218° |
| 2026-05-05 08:55 | 37.83239 | 38.33870 | 39966 ft | 466 kts | 218° |
| 2026-05-05 08:56 | 37.78141 | 38.28800 | 39964 ft | 466 kts | 218° |
| 2026-05-05 08:56 | 37.73063 | 38.23760 | 39960 ft | 466 kts | 218° |
| 2026-05-05 08:57 | 37.67943 | 38.18686 | 39963 ft | 467 kts | 218° |
| 2026-05-05 08:57 | 37.62864 | 38.13661 | 39953 ft | 467 kts | 218° |
| 2026-05-05 08:58 | 37.57748 | 38.08611 | 39946 ft | 467 kts | 218° |
| 2026-05-05 08:58 | 37.52624 | 38.03561 | 39939 ft | 467 kts | 218° |
| 2026-05-05 08:59 | 37.47491 | 37.98501 | 39938 ft | 467 kts | 219° |
| 2026-05-05 08:59 | 37.42412 | 37.93478 | 39936 ft | 467 kts | 219° |
| 2026-05-05 09:00 | 37.37288 | 37.88414 | 39933 ft | 467 kts | 219° |
| 2026-05-05 09:00 | 37.32198 | 37.83395 | 39931 ft | 467 kts | 219° |
| 2026-05-05 09:01 | 37.27082 | 37.78361 | 39934 ft | 467 kts | 219° |
| 2026-05-05 09:01 | 37.21955 | 37.73327 | 39926 ft | 467 kts | 219° |
| 2026-05-05 09:02 | 37.16833 | 37.68306 | 39935 ft | 467 kts | 219° |
| 2026-05-05 09:02 | 37.11737 | 37.63320 | 39935 ft | 467 kts | 219° |
| 2026-05-05 09:03 | 37.06600 | 37.58340 | 39933 ft | 466 kts | 219° |
| 2026-05-05 09:03 | 37.01571 | 37.53196 | 39938 ft | 466 kts | 225° |
| 2026-05-05 09:04 | 36.97660 | 37.46772 | 39939 ft | 464 kts | 242° |
| 2026-05-05 09:04 | 36.95544 | 37.39224 | 39943 ft | 466 kts | 259° |
| 2026-05-05 09:05 | 36.95185 | 37.31117 | 39936 ft | 468 kts | 268° |
| 2026-05-05 09:05 | 36.95284 | 37.22955 | 39933 ft | 469 kts | 269° |
| 2026-05-05 09:06 | 36.95403 | 37.14795 | 39929 ft | 469 kts | 269° |
| 2026-05-05 09:06 | 36.95439 | 37.06641 | 39924 ft | 469 kts | 268° |
| 2026-05-05 09:07 | 36.95400 | 36.98537 | 39931 ft | 469 kts | 268° |
| 2026-05-05 09:07 | 36.95357 | 36.90364 | 39930 ft | 469 kts | 268° |
| 2026-05-05 09:08 | 36.95324 | 36.82207 | 39929 ft | 469 kts | 268° |
| 2026-05-05 09:08 | 36.95291 | 36.74068 | 39929 ft | 469 kts | 268° |
| 2026-05-05 09:09 | 36.95250 | 36.65902 | 39927 ft | 470 kts | 268° |
| 2026-05-05 09:09 | 36.95206 | 36.57715 | 39927 ft | 470 kts | 268° |
| 2026-05-05 09:10 | 36.94724 | 36.49560 | 39920 ft | 469 kts | 257° |
| 2026-05-05 09:10 | 36.92561 | 36.41961 | 39922 ft | 468 kts | 244° |
| 2026-05-05 09:11 | 36.89535 | 36.34760 | 39918 ft | 469 kts | 241° |
| 2026-05-05 09:11 | 36.86373 | 36.27614 | 39918 ft | 469 kts | 241° |
| 2026-05-05 09:12 | 36.83230 | 36.20491 | 39917 ft | 468 kts | 242° |
| 2026-05-05 09:12 | 36.80123 | 36.13393 | 39917 ft | 468 kts | 242° |
| 2026-05-05 09:13 | 36.77127 | 36.06179 | 39915 ft | 468 kts | 248° |
| 2026-05-05 09:13 | 36.75489 | 35.98349 | 39918 ft | 468 kts | 264° |
| 2026-05-05 09:14 | 36.75534 | 35.90216 | 39913 ft | 470 kts | 272° |
| 2026-05-05 09:14 | 36.75995 | 35.82065 | 39917 ft | 471 kts | 273° |
| 2026-05-05 09:15 | 36.76483 | 35.73969 | 39919 ft | 471 kts | 273° |
| 2026-05-05 09:15 | 36.76938 | 35.65796 | 39925 ft | 472 kts | 272° |
| 2026-05-05 09:16 | 36.77365 | 35.57611 | 39929 ft | 472 kts | 272° |
| 2026-05-05 09:16 | 36.77712 | 35.50821 | 39931 ft | 472 kts | 272° |
| 2026-05-05 09:17 | 36.78126 | 35.42628 | 39931 ft | 473 kts | 272° |
| 2026-05-05 09:17 | 36.78534 | 35.34449 | 39934 ft | 473 kts | 272° |
| 2026-05-05 09:18 | 36.78590 | 35.26310 | 39936 ft | 472 kts | 263° |
| 2026-05-05 09:18 | 36.76932 | 35.18469 | 39935 ft | 472 kts | 246° |
| 2026-05-05 09:19 | 36.73357 | 35.11602 | 39936 ft | 474 kts | 231° |
| 2026-05-05 09:19 | 36.68938 | 35.05462 | 39932 ft | 476 kts | 229° |
| 2026-05-05 09:20 | 36.64415 | 34.99416 | 39935 ft | 476 kts | 229° |
| 2026-05-05 09:20 | 36.59931 | 34.93382 | 39939 ft | 476 kts | 229° |
| 2026-05-05 09:21 | 36.55451 | 34.87305 | 39938 ft | 476 kts | 229° |
| 2026-05-05 09:21 | 36.50996 | 34.81255 | 39940 ft | 476 kts | 229° |
| 2026-05-05 09:22 | 36.46516 | 34.75182 | 39944 ft | 476 kts | 229° |
| 2026-05-05 09:22 | 36.42027 | 34.69110 | 39944 ft | 476 kts | 229° |
| 2026-05-05 09:23 | 36.37565 | 34.63087 | 39946 ft | 476 kts | 229° |
| 2026-05-05 09:23 | 36.33058 | 34.57016 | 39949 ft | 476 kts | 229° |
| 2026-05-05 09:24 | 36.28569 | 34.50980 | 39946 ft | 476 kts | 230° |
| 2026-05-05 09:24 | 36.24103 | 34.44985 | 39948 ft | 475 kts | 230° |
| 2026-05-05 09:25 | 36.19612 | 34.38968 | 39949 ft | 475 kts | 230° |
| 2026-05-05 09:25 | 36.15120 | 34.32960 | 39950 ft | 475 kts | 230° |
| 2026-05-05 09:26 | 36.10648 | 34.26990 | 39952 ft | 474 kts | 230° |
| 2026-05-05 09:26 | 36.06162 | 34.21011 | 39950 ft | 474 kts | 230° |
| 2026-05-05 09:27 | 36.01666 | 34.15031 | 39953 ft | 474 kts | 230° |
| 2026-05-05 09:27 | 35.97175 | 34.09067 | 39954 ft | 473 kts | 230° |
| 2026-05-05 09:28 | 35.92305 | 34.03640 | 39953 ft | 478 kts | 217° |
| 2026-05-05 09:28 | 35.86252 | 34.00088 | 39955 ft | 487 kts | 199° |
| 2026-05-05 09:29 | 35.79696 | 33.98025 | 39951 ft | 490 kts | 197° |
| 2026-05-05 09:29 | 35.73011 | 33.96178 | 39954 ft | 491 kts | 197° |
| 2026-05-05 09:30 | 35.66389 | 33.94336 | 39952 ft | 491 kts | 197° |
| 2026-05-05 09:30 | 35.59724 | 33.92438 | 39952 ft | 490 kts | 197° |
| 2026-05-05 09:31 | 35.53067 | 33.90525 | 39957 ft | 490 kts | 197° |
| 2026-05-05 09:31 | 35.46457 | 33.88627 | 39957 ft | 490 kts | 198° |
| 2026-05-05 09:32 | 35.39819 | 33.86726 | 39960 ft | 490 kts | 198° |
| 2026-05-05 09:32 | 35.33160 | 33.84824 | 39956 ft | 489 kts | 198° |
| 2026-05-05 09:33 | 35.26522 | 33.82931 | 39955 ft | 489 kts | 198° |
| 2026-05-05 09:33 | 35.19896 | 33.81046 | 39953 ft | 488 kts | 198° |
| 2026-05-05 09:34 | 35.13325 | 33.79180 | 39956 ft | 487 kts | 198° |
| 2026-05-05 09:34 | 35.06726 | 33.77307 | 39943 ft | 485 kts | 198° |
| 2026-05-05 09:35 | 35.00141 | 33.75443 | 39942 ft | 485 kts | 198° |
| 2026-05-05 09:35 | 34.90326 | 33.72667 | 39937 ft | 485 kts | 198° |
| 2026-05-05 09:36 | 34.83752 | 33.70813 | 39938 ft | 485 kts | 198° |
| 2026-05-05 09:36 | 34.77153 | 33.68954 | 39936 ft | 486 kts | 198° |
| 2026-05-05 09:37 | 34.70589 | 33.67108 | 39944 ft | 486 kts | 198° |
| 2026-05-05 09:37 | 34.63979 | 33.65253 | 39941 ft | 487 kts | 198° |
| 2026-05-05 09:38 | 34.57368 | 33.63400 | 39945 ft | 488 kts | 199° |
| 2026-05-05 09:38 | 34.50747 | 33.61548 | 39947 ft | 487 kts | 199° |
| 2026-05-05 09:39 | 34.44128 | 33.59700 | 39954 ft | 487 kts | 199° |
| 2026-05-05 09:39 | 34.37530 | 33.57860 | 39956 ft | 487 kts | 199° |
| 2026-05-05 09:40 | 34.30974 | 33.56035 | 39966 ft | 486 kts | 199° |
| 2026-05-05 09:40 | 34.24390 | 33.54206 | 39967 ft | 484 kts | 199° |
| 2026-05-05 09:41 | 34.17826 | 33.52385 | 39977 ft | 483 kts | 199° |
| 2026-05-05 09:41 | 34.11270 | 33.50568 | 39978 ft | 482 kts | 199° |
| 2026-05-05 09:42 | 34.04728 | 33.48758 | 39981 ft | 482 kts | 199° |
| 2026-05-05 09:42 | 33.98196 | 33.46953 | 39985 ft | 481 kts | 199° |
| 2026-05-05 09:43 | 33.91706 | 33.45163 | 39989 ft | 480 kts | 199° |
| 2026-05-05 09:43 | 33.85191 | 33.43369 | 39991 ft | 480 kts | 199° |
| 2026-05-05 09:44 | 33.78677 | 33.41579 | 39993 ft | 479 kts | 199° |
| 2026-05-05 09:44 | 33.72175 | 33.39786 | 39991 ft | 478 kts | 200° |
| 2026-05-05 09:45 | 33.66089 | 33.36959 | 39999 ft | 463 kts | 216° |
| 2026-05-05 09:45 | 33.61097 | 33.32352 | 39999 ft | 451 kts | 228° |
| 2026-05-05 09:46 | 33.56598 | 33.27097 | 40003 ft | 450 kts | 230° |
| 2026-05-05 09:46 | 33.52193 | 33.21818 | 40001 ft | 450 kts | 230° |
| 2026-05-05 09:47 | 33.47734 | 33.16523 | 39999 ft | 451 kts | 229° |
| 2026-05-05 09:47 | 33.43260 | 33.11259 | 39998 ft | 451 kts | 229° |
| 2026-05-05 09:48 | 33.38767 | 33.05994 | 40010 ft | 450 kts | 229° |
| 2026-05-05 09:48 | 33.34320 | 33.00791 | 40008 ft | 450 kts | 229° |
| 2026-05-05 09:49 | 33.29837 | 32.95551 | 40011 ft | 450 kts | 229° |
| 2026-05-05 09:49 | 33.25359 | 32.90324 | 40012 ft | 450 kts | 229° |
| 2026-05-05 09:50 | 33.20878 | 32.85102 | 40017 ft | 450 kts | 229° |
| 2026-05-05 09:50 | 33.16408 | 32.79899 | 40014 ft | 450 kts | 229° |
| 2026-05-05 09:51 | 33.11914 | 32.74677 | 40014 ft | 449 kts | 229° |
| 2026-05-05 09:51 | 33.07435 | 32.69480 | 40018 ft | 449 kts | 229° |
| 2026-05-05 09:52 | 33.02972 | 32.64312 | 40024 ft | 449 kts | 229° |
| 2026-05-05 09:52 | 32.98488 | 32.59124 | 40026 ft | 448 kts | 229° |
| 2026-05-05 09:53 | 32.94009 | 32.53951 | 40025 ft | 448 kts | 229° |
| 2026-05-05 09:53 | 32.89548 | 32.48807 | 40028 ft | 448 kts | 229° |
| 2026-05-05 09:54 | 32.85069 | 32.43649 | 40031 ft | 448 kts | 229° |
| 2026-05-05 09:54 | 32.80878 | 32.38248 | 40032 ft | 441 kts | 238° |
| 2026-05-05 09:55 | 32.77301 | 32.32336 | 40034 ft | 439 kts | 239° |
| 2026-05-05 09:55 | 32.73830 | 32.26356 | 40047 ft | 439 kts | 240° |
| 2026-05-05 09:56 | 32.70387 | 32.20412 | 40042 ft | 438 kts | 240° |
| 2026-05-05 09:56 | 32.66912 | 32.14450 | 40043 ft | 438 kts | 240° |
| 2026-05-05 09:57 | 32.63450 | 32.08537 | 40047 ft | 438 kts | 240° |
| 2026-05-05 09:57 | 32.59976 | 32.02592 | 40043 ft | 438 kts | 240° |
| 2026-05-05 09:58 | 32.56509 | 31.96657 | 40043 ft | 437 kts | 240° |
| 2026-05-05 09:58 | 32.53047 | 31.90740 | 40045 ft | 436 kts | 240° |
| 2026-05-05 09:59 | 32.49605 | 31.84867 | 40052 ft | 436 kts | 240° |
| 2026-05-05 09:59 | 32.46142 | 31.78969 | 40052 ft | 435 kts | 240° |
| 2026-05-05 10:00 | 32.42680 | 31.73081 | 40055 ft | 435 kts | 240° |
| 2026-05-05 10:00 | 32.39238 | 31.67235 | 40057 ft | 434 kts | 240° |
| 2026-05-05 10:01 | 32.35776 | 31.61365 | 40058 ft | 434 kts | 240° |
| 2026-05-05 10:01 | 32.32319 | 31.55514 | 40058 ft | 434 kts | 240° |
| 2026-05-05 10:02 | 32.28880 | 31.49701 | 40062 ft | 433 kts | 240° |
| 2026-05-05 10:02 | 32.25417 | 31.43858 | 40070 ft | 433 kts | 240° |
| 2026-05-05 10:03 | 32.21959 | 31.38030 | 40069 ft | 433 kts | 240° |
| 2026-05-05 10:03 | 32.18494 | 31.32199 | 40071 ft | 433 kts | 240° |
| 2026-05-05 10:04 | 32.15051 | 31.26414 | 40074 ft | 433 kts | 240° |
| 2026-05-05 10:04 | 32.11582 | 31.20596 | 40074 ft | 433 kts | 240° |
| 2026-05-05 10:05 | 32.07790 | 31.15004 | 40075 ft | 441 kts | 231° |
| 2026-05-05 10:05 | 32.03709 | 31.11242 | 40082 ft | 455 kts | 218° |
| 2026-05-05 10:06 | 31.99848 | 31.09142 | 40075 ft | 469 kts | 206° |
| 2026-05-05 10:06 | 31.97710 | 31.08445 | 40080 ft | 476 kts | 200° |
| 2026-05-05 10:06 | 31.94425 | 31.07934 | 40080 ft | 488 kts | 191° |
| 2026-05-05 10:06 | 31.90953 | 31.08022 | 40080 ft | 496 kts | 184° |
| 2026-05-05 10:07 | 31.84065 | 31.08749 | 40076 ft | 500 kts | 182° |
| 2026-05-05 10:07 | 31.77178 | 31.09596 | 40084 ft | 499 kts | 182° |
| 2026-05-05 10:08 | 31.70259 | 31.10393 | 40079 ft | 498 kts | 183° |
| 2026-05-05 10:08 | 31.63357 | 31.11142 | 39971 ft | 495 kts | 183° |
| 2026-05-05 10:09 | 31.59938 | 31.11508 | 39360 ft | 495 kts | 183° |
| 2026-05-05 10:09 | 31.56496 | 31.11872 | 38622 ft | 498 kts | 184° |
| 2026-05-05 10:09 | 31.53028 | 31.12236 | 37689 ft | 501 kts | 184° |
| 2026-05-05 10:09 | 31.49541 | 31.12667 | 36718 ft | 510 kts | 181° |
| 2026-05-05 10:10 | 31.46000 | 31.13287 | 35842 ft | 516 kts | 179° |
| 2026-05-05 10:10 | 31.42489 | 31.13994 | 35045 ft | 519 kts | 178° |
| 2026-05-05 10:10 | 31.38913 | 31.14737 | 34182 ft | 523 kts | 178° |
| 2026-05-05 10:10 | 31.35316 | 31.15472 | 33173 ft | 527 kts | 178° |
| 2026-05-05 10:11 | 31.31688 | 31.16190 | 32210 ft | 529 kts | 178° |
| 2026-05-05 10:11 | 31.28045 | 31.16893 | 31282 ft | 530 kts | 178° |
| 2026-05-05 10:11 | 31.24401 | 31.17584 | 30365 ft | 531 kts | 178° |
| 2026-05-05 10:11 | 31.20740 | 31.18273 | 29373 ft | 531 kts | 178° |
| 2026-05-05 10:12 | 31.17105 | 31.18954 | 28585 ft | 526 kts | 177° |
| 2026-05-05 10:12 | 31.13512 | 31.19624 | 27854 ft | 521 kts | 177° |
| 2026-05-05 10:12 | 31.09989 | 31.20280 | 27136 ft | 517 kts | 177° |
| 2026-05-05 10:12 | 31.06454 | 31.20937 | 26410 ft | 512 kts | 177° |
| 2026-05-05 10:13 | 31.02935 | 31.21590 | 25690 ft | 509 kts | 177° |
| 2026-05-05 10:13 | 30.99456 | 31.22235 | 24991 ft | 505 kts | 177° |
| 2026-05-05 10:13 | 30.96002 | 31.22875 | 24341 ft | 500 kts | 176° |
| 2026-05-05 10:13 | 30.92576 | 31.23511 | 23691 ft | 496 kts | 176° |
| 2026-05-05 10:14 | 30.89184 | 31.24140 | 22946 ft | 491 kts | 176° |
| 2026-05-05 10:14 | 30.85825 | 31.24761 | 22224 ft | 485 kts | 176° |
| 2026-05-05 10:14 | 30.82509 | 31.25376 | 21515 ft | 476 kts | 176° |
| 2026-05-05 10:14 | 30.79324 | 31.25972 | 20590 ft | 452 kts | 176° |
| 2026-05-05 10:15 | 30.76268 | 31.26545 | 19835 ft | 441 kts | 176° |
| 2026-05-05 10:15 | 30.73272 | 31.27094 | 19122 ft | 441 kts | 176° |
| 2026-05-05 10:15 | 30.70244 | 31.27646 | 18405 ft | 440 kts | 175° |
| 2026-05-05 10:15 | 30.67215 | 31.28197 | 17614 ft | 439 kts | 175° |
| 2026-05-05 10:16 | 30.64198 | 31.28749 | 16874 ft | 436 kts | 175° |
| 2026-05-05 10:16 | 30.61207 | 31.29298 | 16136 ft | 433 kts | 175° |
| 2026-05-05 10:16 | 30.58230 | 31.29842 | 15412 ft | 431 kts | 174° |
| 2026-05-05 10:16 | 30.55312 | 31.30376 | 14679 ft | 424 kts | 174° |
| 2026-05-05 10:17 | 30.52481 | 31.30769 | 14000 ft | 400 kts | 181° |
| 2026-05-05 10:17 | 30.49727 | 31.30461 | 13198 ft | 395 kts | 197° |
| 2026-05-05 10:17 | 30.47240 | 31.29239 | 12479 ft | 385 kts | 216° |
| 2026-05-05 10:17 | 30.45305 | 31.27189 | 11826 ft | 374 kts | 237° |
| 2026-05-05 10:18 | 30.44071 | 31.24628 | 11649 ft | 353 kts | 248° |
| 2026-05-05 10:18 | 30.43138 | 31.22083 | 11529 ft | 327 kts | 252° |
| 2026-05-05 10:18 | 30.42376 | 31.19736 | 11435 ft | 293 kts | 253° |
| 2026-05-05 10:18 | 30.41719 | 31.17583 | 11328 ft | 276 kts | 255° |
| 2026-05-05 10:19 | 30.41108 | 31.15551 | 11226 ft | 267 kts | 255° |
| 2026-05-05 10:19 | 30.40492 | 31.13526 | 11109 ft | 265 kts | 254° |
| 2026-05-05 10:19 | 30.39868 | 31.11515 | 10987 ft | 265 kts | 253° |
| 2026-05-05 10:19 | 30.39121 | 31.09559 | 10687 ft | 268 kts | 243° |
| 2026-05-05 10:20 | 30.37924 | 31.07878 | 10407 ft | 274 kts | 224° |
| 2026-05-05 10:20 | 30.36260 | 31.06756 | 10100 ft | 280 kts | 206° |
| 2026-05-05 10:20 | 30.34386 | 31.06027 | 9806 ft | 293 kts | 198° |
| 2026-05-05 10:20 | 30.32383 | 31.05482 | 9711 ft | 302 kts | 194° |
| 2026-05-05 10:21 | 30.30329 | 31.05024 | 9353 ft | 300 kts | 193° |
| 2026-05-05 10:21 | 30.28269 | 31.04588 | 8880 ft | 301 kts | 193° |
| 2026-05-05 10:21 | 30.26186 | 31.04260 | 8435 ft | 302 kts | 183° |
| 2026-05-05 10:21 | 30.24115 | 31.04620 | 8044 ft | 303 kts | 161° |
| 2026-05-05 10:22 | 30.22189 | 31.05572 | 7682 ft | 301 kts | 154° |
| 2026-05-05 10:22 | 30.20364 | 31.06752 | 7315 ft | 299 kts | 149° |
| 2026-05-05 10:22 | 30.18631 | 31.08019 | 6967 ft | 297 kts | 147° |
| 2026-05-05 10:22 | 30.16911 | 31.09330 | 6586 ft | 294 kts | 147° |
| 2026-05-05 10:23 | 30.15206 | 31.10632 | 6193 ft | 292 kts | 147° |
| 2026-05-05 10:23 | 30.13508 | 31.11905 | 5821 ft | 290 kts | 148° |
| 2026-05-05 10:23 | 30.11808 | 31.13150 | 5472 ft | 289 kts | 148° |
| 2026-05-05 10:23 | 30.10108 | 31.14380 | 5167 ft | 287 kts | 148° |
| 2026-05-05 10:24 | 30.08413 | 31.15599 | 4809 ft | 286 kts | 149° |
| 2026-05-05 10:24 | 30.06728 | 31.16802 | 4447 ft | 284 kts | 149° |
| 2026-05-05 10:24 | 30.05073 | 31.17978 | 4296 ft | 282 kts | 149° |
| 2026-05-05 10:24 | 30.03425 | 31.19152 | 4103 ft | 269 kts | 149° |
| 2026-05-05 10:25 | 30.01892 | 31.20244 | 3831 ft | 249 kts | 149° |
| 2026-05-05 10:25 | 30.00497 | 31.21293 | 3634 ft | 230 kts | 142° |
| 2026-05-05 10:25 | 29.99437 | 31.22620 | 3499 ft | 223 kts | 122° |
| 2026-05-05 10:25 | 29.98943 | 31.24275 | 3425 ft | 213 kts | 86° |
| 2026-05-05 10:26 | 29.99068 | 31.25865 | 3409 ft | 190 kts | 83° |
| 2026-05-05 10:26 | 29.99186 | 31.27356 | 3343 ft | 186 kts | 73° |
| 2026-05-05 10:26 | 29.99825 | 31.28604 | 3225 ft | 180 kts | 36° |
| 2026-05-05 10:26 | 30.00891 | 31.29301 | 3160 ft | 176 kts | 22° |
| 2026-05-05 10:27 | 30.01958 | 31.30014 | 3121 ft | 177 kts | 27° |
| 2026-05-05 10:27 | 30.03007 | 31.30764 | 3074 ft | 179 kts | 32° |
| 2026-05-05 10:27 | 30.03906 | 31.31764 | 3073 ft | 179 kts | 46° |
| 2026-05-05 10:27 | 30.04689 | 31.32813 | 3050 ft | 165 kts | 43° |
| 2026-05-05 10:28 | 30.05441 | 31.33796 | 3040 ft | 162 kts | 45° |
| 2026-05-05 10:28 | 30.06179 | 31.34775 | 3015 ft | 161 kts | 45° |
| 2026-05-05 10:28 | 30.06913 | 31.35751 | 2799 ft | 161 kts | 45° |
| 2026-05-05 10:28 | 30.07638 | 31.36714 | 2546 ft | 160 kts | 45° |
| 2026-05-05 10:29 | 30.08381 | 31.37708 | 2507 ft | 161 kts | 44° |
| 2026-05-05 10:29 | 30.09108 | 31.38672 | 2505 ft | 161 kts | 45° |
| 2026-05-05 10:29 | 30.09837 | 31.39648 | 2503 ft | 161 kts | 44° |
| 2026-05-05 10:29 | 30.10616 | 31.40581 | 2504 ft | 160 kts | 33° |
| 2026-05-05 10:30 | 30.11599 | 31.41118 | 2503 ft | 155 kts | 18° |
| 2026-05-05 10:30 | 30.12522 | 31.41779 | 2495 ft | 161 kts | 43° |
| 2026-05-05 10:30 | 30.13017 | 31.42943 | 2501 ft | 170 kts | 81° |
| 2026-05-05 10:30 | 30.12715 | 31.44252 | 2514 ft | 173 kts | 126° |
| 2026-05-05 10:31 | 30.11755 | 31.45006 | 2554 ft | 166 kts | 168° |
| 2026-05-05 10:31 | 30.10623 | 31.45164 | 2944 ft | 165 kts | 182° |
| 2026-05-05 10:31 | 30.09462 | 31.45180 | 3365 ft | 167 kts | 185° |
| 2026-05-05 10:31 | 30.08303 | 31.45173 | 3493 ft | 166 kts | 184° |
| 2026-05-05 10:32 | 30.07163 | 31.45155 | 3518 ft | 166 kts | 184° |
| 2026-05-05 10:32 | 30.06003 | 31.45135 | 3510 ft | 167 kts | 184° |
| 2026-05-05 10:32 | 30.04833 | 31.45106 | 3505 ft | 168 kts | 184° |
| 2026-05-05 10:32 | 30.03639 | 31.45072 | 3509 ft | 177 kts | 184° |
| 2026-05-05 10:33 | 30.02432 | 31.44742 | 3516 ft | 185 kts | 212° |
| 2026-05-05 10:33 | 30.01363 | 31.43881 | 3507 ft | 189 kts | 223° |
| 2026-05-05 10:33 | 30.00361 | 31.42889 | 3505 ft | 189 kts | 225° |
| 2026-05-05 10:33 | 29.99364 | 31.41894 | 3506 ft | 189 kts | 225° |
| 2026-05-05 10:34 | 29.98371 | 31.40901 | 3511 ft | 189 kts | 224° |
| 2026-05-05 10:34 | 29.97384 | 31.39906 | 3508 ft | 189 kts | 225° |
| 2026-05-05 10:34 | 29.96407 | 31.38924 | 3501 ft | 189 kts | 224° |
| 2026-05-05 10:34 | 29.95419 | 31.37927 | 3505 ft | 189 kts | 225° |
| 2026-05-05 10:35 | 29.94426 | 31.36921 | 3490 ft | 190 kts | 225° |
| 2026-05-05 10:35 | 29.93413 | 31.35892 | 3141 ft | 195 kts | 224° |
| 2026-05-05 10:35 | 29.92411 | 31.34874 | 2942 ft | 189 kts | 226° |
| 2026-05-05 10:35 | 29.91448 | 31.33883 | 2714 ft | 183 kts | 229° |
| 2026-05-05 10:36 | 29.90942 | 31.32597 | 2529 ft | 178 kts | 268° |
| 2026-05-05 10:36 | 29.91278 | 31.31274 | 2504 ft | 176 kts | 306° |
| 2026-05-05 10:36 | 29.92174 | 31.30321 | 2507 ft | 176 kts | 322° |
| 2026-05-05 10:36 | 29.93179 | 31.29510 | 2501 ft | 176 kts | 324° |
| 2026-05-05 10:37 | 29.94197 | 31.28721 | 2502 ft | 177 kts | 324° |
| 2026-05-05 10:37 | 29.95219 | 31.27934 | 2501 ft | 176 kts | 324° |
| 2026-05-05 10:37 | 29.96239 | 31.27156 | 2505 ft | 176 kts | 325° |
| 2026-05-05 10:37 | 29.97417 | 31.26763 | 2505 ft | 183 kts | 358° |
| 2026-05-05 10:38 | 29.98600 | 31.27305 | 2500 ft | 189 kts | 37° |
| 2026-05-05 10:38 | 29.99317 | 31.28595 | 2513 ft | 195 kts | 66° |
| 2026-05-05 10:38 | 29.99913 | 31.29999 | 2499 ft | 194 kts | 52° |
| 2026-05-05 10:38 | 30.00588 | 31.31319 | 2504 ft | 197 kts | 66° |
| 2026-05-05 10:39 | 30.00628 | 31.32890 | 2486 ft | 201 kts | 104° |
| 2026-05-05 10:39 | 29.99853 | 31.34223 | 2479 ft | 198 kts | 142° |
| 2026-05-05 10:39 | 29.98583 | 31.34753 | 2480 ft | 195 kts | 180° |
| 2026-05-05 10:39 | 29.97337 | 31.34338 | 2492 ft | 188 kts | 217° |
| 2026-05-05 10:40 | 29.96411 | 31.33323 | 2482 ft | 182 kts | 232° |
| 2026-05-05 10:40 | 29.95602 | 31.32191 | 2486 ft | 183 kts | 235° |
| 2026-05-05 10:40 | 29.94955 | 31.30950 | 2477 ft | 180 kts | 256° |
| 2026-05-05 10:40 | 29.95048 | 31.29556 | 2489 ft | 177 kts | 295° |
| 2026-05-05 10:41 | 29.95834 | 31.28491 | 2495 ft | 176 kts | 320° |
| 2026-05-05 10:41 | 29.96827 | 31.27660 | 2488 ft | 176 kts | 324° |
| 2026-05-05 10:41 | 29.97878 | 31.26954 | 2480 ft | 178 kts | 337° |
| 2026-05-05 10:41 | 29.99121 | 31.26919 | 2493 ft | 182 kts | 8° |
| 2026-05-05 10:42 | 30.01375 | 31.28263 | 2485 ft | 191 kts | 46° |
| 2026-05-05 10:42 | 30.02204 | 31.29466 | 2477 ft | 191 kts | 49° |
| 2026-05-05 10:42 | 30.03062 | 31.30638 | 2440 ft | 192 kts | 45° |
| 2026-05-05 10:43 | 30.03943 | 31.31782 | 2211 ft | 190 kts | 46° |
| 2026-05-05 10:43 | 30.04778 | 31.32905 | 1960 ft | 182 kts | 45° |
| 2026-05-05 10:43 | 30.05596 | 31.33998 | 1718 ft | 176 kts | 45° |
| 2026-05-05 10:43 | 30.06381 | 31.35045 | 1474 ft | 169 kts | 45° |
| 2026-05-05 10:44 | 30.07139 | 31.36054 | 1262 ft | 164 kts | 45° |
| 2026-05-05 10:44 | 30.07872 | 31.37033 | 1042 ft | 154 kts | 45° |
| 2026-05-05 10:44 | 30.08536 | 31.37920 | 842 ft | 141 kts | 44° |
| 2026-05-05 10:44 | 30.09166 | 31.38758 | 647 ft | 140 kts | 46° |
| 2026-05-05 10:45 | 30.09807 | 31.39614 | 452 ft | 154 kts | 46° |
| 2026-05-05 10:45 | 30.10497 | 31.40536 | 391 ft | 143 kts | 49° |
| 2026-05-05 10:45 | 30.10972 | 31.41163 | 392 ft | 61 kts | 50° |
| 2026-05-05 10:45 | 30.11183 | 31.41438 | 393 ft | 27 kts | 48° |
| 2026-05-05 10:46 | 30.11314 | 31.41563 | 390 ft | 21 kts | 19° |
| 2026-05-05 10:46 | 30.11357 | 31.41580 | 389 ft | 5 kts | 19° |
| 2026-05-05 10:46 | 30.11394 | 31.41595 | 387 ft | 0 kts | 19° |
| 2026-05-05 10:47 | 30.11447 | 31.41617 | 385 ft | 15 kts | 17° |
| 2026-05-05 10:47 | 30.11538 | 31.41617 | 379 ft | 9 kts | 332° |
| 2026-05-05 10:48 | 30.11578 | 31.41571 | 376 ft | 5 kts | 272° |
| 2026-05-05 10:48 | 30.11539 | 31.41515 | 378 ft | 14 kts | 229° |
| 2026-05-05 10:48 | 30.11452 | 31.41403 | 375 ft | 19 kts | 229° |
| 2026-05-05 10:48 | 30.11402 | 31.41305 | 374 ft | 16 kts | 271° |
| 2026-05-05 10:49 | 30.11424 | 31.41232 | 374 ft | 6 kts | 283° |
| 2026-05-05 10:49 | 30.11394 | 31.41166 | 370 ft | 14 kts | 232° |
| 2026-05-05 10:49 | 30.11307 | 31.41046 | 371 ft | 22 kts | 225° |
| 2026-05-05 10:49 | 30.11284 | 31.41017 | 376 ft | 6 kts | 227° |
| 2026-05-05 10:50 | 30.11229 | 31.40944 | 373 ft | 17 kts | 229° |
| 2026-05-05 10:50 | 30.11143 | 31.40831 | 374 ft | 16 kts | 229° |
| 2026-05-05 10:50 | 30.11056 | 31.40716 | 373 ft | 22 kts | 228° |
| 2026-05-05 10:50 | 30.10969 | 31.40598 | 377 ft | 16 kts | 229° |
| 2026-05-05 10:51 | 30.10898 | 31.40504 | 374 ft | 18 kts | 229° |
| 2026-05-05 10:51 | 30.10801 | 31.40375 | 373 ft | 12 kts | 229° |
| 2026-05-05 10:51 | 30.10740 | 31.40296 | 377 ft | 16 kts | 228° |
| 2026-05-05 10:51 | 30.10683 | 31.40220 | 375 ft | 20 kts | 230° |
| 2026-05-05 10:52 | 30.10641 | 31.40163 | 377 ft | 11 kts | 229° |
| 2026-05-05 10:52 | 30.10554 | 31.40049 | 375 ft | 17 kts | 229° |
| 2026-05-05 10:52 | 30.10490 | 31.39955 | 372 ft | 14 kts | 251° |
| 2026-05-05 10:52 | 30.10548 | 31.39852 | 371 ft | 21 kts | 344° |
| 2026-05-05 10:53 | 30.10609 | 31.39834 | 366 ft | 14 kts | 346° |
| 2026-05-05 10:53 | 30.10710 | 31.39804 | 364 ft | 15 kts | 344° |
| 2026-05-05 10:53 | 30.10813 | 31.39776 | 354 ft | 11 kts | 360° |
| 2026-05-05 10:53 | 30.10844 | 31.39811 | 356 ft | 6 kts | 60° |
| 2026-05-05 10:54 | 30.10850 | 31.39832 | 359 ft | 0 kts | 69° |
| 2026-05-05 10:54 | 30.10854 | 31.39845 | 358 ft | 0 kts | 72° |